createdAt,value
2022-11-22T00:00:28.096Z,4.25
2022-11-22T00:02:55.374Z,4.55
2022-11-22T00:05:22.629Z,4.50
2022-11-22T00:07:50.815Z,4.15
2022-11-22T00:10:18.112Z,4.18
2022-11-22T00:12:45.819Z,4.72
2022-11-22T00:15:12.967Z,4.85
2022-11-22T00:17:40.084Z,4.25
2022-11-22T00:20:08.422Z,4.90
2022-11-22T00:22:39.744Z,4.72
2022-11-22T00:25:10.360Z,4.45
2022-11-22T00:27:37.467Z,3.97
2022-11-22T00:30:04.814Z,4.25
2022-11-22T00:32:32.010Z,4.53
2022-11-22T00:34:59.138Z,5.20
2022-11-22T00:37:26.356Z,5.35
2022-11-22T00:39:53.565Z,5.78
2022-11-22T00:42:20.809Z,5.68
2022-11-22T00:44:47.916Z,5.60
2022-11-22T00:47:15.101Z,6.53
2022-11-22T00:49:42.239Z,4.95
2022-11-22T00:52:09.367Z,5.38
2022-11-22T00:54:36.544Z,5.88
2022-11-22T00:57:03.699Z,6.22
2022-11-22T00:59:31.278Z,6.18
2022-11-22T01:01:58.682Z,5.10
2022-11-22T01:04:25.921Z,6.18
2022-11-22T01:06:53.067Z,6.72
2022-11-22T01:09:21.894Z,6.25
2022-11-22T01:11:49.106Z,6.25
2022-11-22T01:14:16.616Z,5.55
2022-11-22T01:16:44.153Z,5.60
2022-11-22T01:19:11.258Z,5.10
2022-11-22T01:21:38.399Z,4.70
2022-11-22T01:24:05.841Z,4.85
2022-11-22T01:26:33.703Z,3.40
2022-11-22T01:29:00.909Z,4.18
2022-11-22T01:31:30.061Z,4.63
2022-11-22T01:33:57.485Z,4.80
2022-11-22T01:36:24.656Z,4.78
2022-11-22T01:38:51.840Z,4.28
2022-11-22T01:41:18.958Z,4.97
2022-11-22T01:43:46.106Z,3.90
2022-11-22T01:46:21.874Z,5.28
2022-11-22T01:49:01.356Z,4.78
2022-11-22T01:51:47.546Z,4.45
2022-11-22T01:54:16.820Z,5.03
2022-11-22T01:56:45.157Z,4.13
2022-11-22T01:59:15.236Z,4.25
2022-11-22T02:01:42.423Z,5.28
2022-11-22T02:04:11.667Z,4.93
2022-11-22T02:06:43.012Z,4.95
2022-11-22T02:11:39.086Z,4.93
2022-11-22T02:14:06.708Z,6.03
2022-11-22T02:16:35.265Z,5.00
2022-11-22T02:19:02.570Z,6.10
2022-11-22T02:21:29.995Z,5.60
2022-11-22T02:24:02.357Z,6.93
2022-11-22T02:26:30.247Z,5.80
2022-11-22T02:28:59.629Z,6.82
2022-11-22T02:31:37.948Z,6.72
2022-11-22T02:34:05.301Z,6.53
2022-11-22T02:36:35.668Z,6.63
2022-11-22T02:39:03.088Z,7.13
2022-11-22T02:41:30.264Z,8.02
2022-11-22T02:43:57.442Z,7.68
2022-11-22T02:46:24.695Z,7.50
2022-11-22T02:48:51.789Z,8.10
2022-11-22T02:51:20.097Z,7.68
2022-11-22T02:53:48.237Z,7.97
2022-11-22T02:56:16.008Z,7.00
2022-11-22T02:58:44.062Z,5.10
2022-11-22T03:01:12.177Z,7.97
2022-11-22T03:03:39.317Z,7.88
2022-11-22T03:06:06.457Z,7.28
2022-11-22T03:08:33.652Z,8.55
2022-11-22T03:11:00.872Z,9.60
2022-11-22T03:13:28.010Z,8.40
2022-11-22T03:15:55.202Z,7.85
2022-11-22T03:18:22.461Z,8.40
2022-11-22T03:20:49.652Z,6.93
2022-11-22T03:23:16.980Z,7.20
2022-11-22T03:25:44.133Z,9.10
2022-11-22T03:28:11.277Z,9.60
2022-11-22T03:30:41.912Z,9.35
2022-11-22T03:33:09.252Z,9.13
2022-11-22T03:35:36.452Z,9.38
2022-11-22T03:38:04.116Z,10.15
2022-11-22T03:40:31.230Z,8.82
2022-11-22T03:43:02.023Z,9.70
2022-11-22T03:45:29.608Z,6.75
2022-11-22T03:47:57.617Z,9.98
2022-11-22T03:50:25.329Z,9.75
2022-11-22T03:52:52.517Z,9.68
2022-11-22T03:55:19.886Z,8.43
2022-11-22T03:57:47.120Z,8.50
2022-11-22T04:00:14.507Z,9.48
2022-11-22T04:02:41.648Z,7.80
2022-11-22T04:05:08.855Z,8.75
2022-11-22T04:07:36.092Z,7.93
2022-11-22T04:10:03.561Z,8.15
2022-11-22T04:12:30.966Z,7.47
2022-11-22T04:15:07.208Z,8.30
2022-11-22T04:17:47.955Z,7.82
2022-11-22T04:20:44.493Z,6.95
2022-11-22T04:23:15.854Z,7.90
2022-11-22T04:28:11.528Z,8.02
2022-11-22T04:30:57.701Z,6.80
2022-11-22T04:33:24.890Z,8.77
2022-11-22T04:35:52.293Z,8.25
2022-11-22T04:38:19.943Z,7.95
2022-11-22T04:40:47.457Z,9.05
2022-11-22T04:43:43.649Z,8.90
2022-11-22T04:46:10.984Z,8.93
2022-11-22T04:48:38.103Z,9.07
2022-11-22T04:51:24.883Z,8.40
2022-11-22T04:53:52.316Z,7.15
2022-11-22T04:56:19.554Z,8.55
2022-11-22T04:58:46.751Z,6.20
2022-11-22T05:01:13.961Z,7.95
2022-11-22T05:03:41.104Z,8.13
2022-11-22T05:06:08.276Z,8.50
2022-11-22T05:08:35.393Z,8.70
2022-11-22T05:11:02.533Z,8.77
2022-11-22T05:13:34.001Z,9.13
2022-11-22T05:16:01.698Z,9.60
2022-11-22T05:18:29.279Z,9.70
2022-11-22T05:20:56.490Z,9.68
2022-11-22T05:23:42.631Z,8.70
2022-11-22T05:26:10.841Z,9.85
2022-11-22T05:28:38.766Z,8.70
2022-11-22T05:31:13.350Z,8.82
2022-11-22T05:33:41.558Z,9.55
2022-11-22T05:36:08.965Z,9.05
2022-11-22T05:38:37.851Z,8.80
2022-11-22T05:41:09.159Z,8.63
2022-11-22T05:43:36.333Z,8.48
2022-11-22T05:46:10.484Z,8.68
2022-11-22T05:48:38.524Z,8.95
2022-11-22T05:51:06.826Z,8.13
2022-11-22T05:53:34.452Z,8.18
2022-11-22T05:56:08.378Z,7.93
2022-11-22T05:58:35.802Z,7.70
2022-11-22T06:01:03.848Z,7.50
2022-11-22T06:03:31.201Z,7.35
2022-11-22T06:05:58.361Z,7.18
2022-11-22T06:08:25.497Z,8.38
2022-11-22T06:10:52.597Z,9.50
2022-11-22T06:13:19.772Z,8.32
2022-11-22T06:15:46.930Z,9.05
2022-11-22T06:18:14.031Z,8.85
2022-11-22T06:20:41.203Z,8.32
2022-11-22T06:23:08.343Z,8.45
2022-11-22T06:25:35.446Z,7.97
2022-11-22T06:28:02.682Z,9.00
2022-11-22T06:30:29.794Z,8.75
2022-11-22T06:32:57.927Z,8.75
2022-11-22T06:35:25.782Z,8.68
2022-11-22T06:37:57.457Z,8.65
2022-11-22T06:40:27.683Z,9.20
2022-11-22T06:42:54.828Z,8.35
2022-11-22T06:45:21.934Z,9.70
2022-11-22T06:47:49.112Z,10.05
2022-11-22T06:50:21.592Z,10.82
2022-11-22T06:52:53.139Z,9.80
2022-11-22T06:55:48.622Z,10.07
2022-11-22T06:58:07.460Z,10.88
2022-11-22T07:00:34.696Z,10.90
2022-11-22T07:03:01.805Z,10.85
2022-11-22T07:05:28.983Z,11.07
2022-11-22T07:08:04.553Z,10.88
2022-11-22T07:10:34.001Z,10.77
2022-11-22T07:13:01.112Z,11.20
2022-11-22T07:15:28.212Z,11.75
2022-11-22T07:17:55.386Z,10.43
2022-11-22T07:20:22.485Z,10.23
2022-11-22T07:22:49.612Z,10.43
2022-11-22T07:25:16.929Z,10.23
2022-11-22T07:27:44.141Z,10.55
2022-11-22T07:30:11.624Z,8.40
2022-11-22T07:32:38.818Z,9.38
2022-11-22T07:35:06.165Z,10.90
2022-11-22T07:37:33.288Z,10.48
2022-11-22T07:40:00.457Z,10.80
2022-11-22T07:42:27.541Z,10.57
2022-11-22T07:44:54.652Z,10.85
2022-11-22T07:47:23.157Z,11.20
2022-11-22T07:49:50.449Z,10.98
2022-11-22T07:52:17.552Z,11.93
2022-11-22T07:54:44.724Z,11.88
2022-11-22T07:57:11.935Z,11.77
2022-11-22T07:59:39.075Z,9.90
2022-11-22T08:02:06.327Z,9.57
2022-11-22T08:04:33.566Z,11.10
2022-11-22T08:07:00.701Z,9.07
2022-11-22T08:09:28.063Z,9.90
2022-11-22T08:11:55.632Z,8.95
2022-11-22T08:14:22.758Z,9.88
2022-11-22T08:16:50.127Z,10.75
2022-11-22T08:19:17.528Z,10.23
2022-11-22T08:21:45.438Z,9.75
2022-11-22T08:24:12.795Z,10.00
2022-11-22T08:26:40.111Z,9.40
2022-11-22T08:29:13.675Z,8.82
2022-11-22T08:31:41.512Z,8.77
2022-11-22T08:34:08.724Z,9.43
2022-11-22T08:36:35.962Z,8.95
2022-11-22T08:39:04.088Z,9.07
2022-11-22T08:41:31.212Z,6.07
2022-11-22T08:43:58.354Z,8.20
2022-11-22T08:46:25.564Z,9.38
2022-11-22T08:48:54.214Z,6.47
2022-11-22T08:51:21.407Z,7.68
2022-11-22T08:53:48.580Z,8.95
2022-11-22T08:56:16.302Z,9.13
2022-11-22T08:58:43.953Z,8.75
2022-11-22T09:01:16.236Z,8.45
2022-11-22T09:03:43.833Z,7.78
2022-11-22T09:09:36.441Z,8.15
2022-11-22T09:11:48.024Z,7.72
2022-11-22T09:14:15.281Z,8.18
2022-11-22T09:16:42.425Z,8.70
2022-11-22T09:19:09.856Z,9.10
2022-11-22T09:21:37.048Z,9.50
2022-11-22T09:24:04.272Z,9.05
2022-11-22T09:26:31.583Z,9.80
2022-11-22T09:28:58.844Z,9.75
2022-11-22T09:31:25.964Z,10.68
2022-11-22T09:33:53.176Z,10.63
2022-11-22T09:36:21.913Z,9.90
2022-11-22T09:38:49.145Z,11.13
2022-11-22T09:41:16.283Z,9.52
2022-11-22T09:43:49.350Z,10.40
2022-11-22T09:46:23.340Z,10.60
2022-11-22T09:49:02.639Z,8.65
2022-11-22T09:51:34.149Z,8.82
2022-11-22T09:54:20.375Z,9.30
2022-11-22T09:56:48.643Z,9.45
2022-11-22T09:59:28.549Z,8.00
2022-11-22T10:02:17.432Z,8.85
2022-11-22T10:04:49.147Z,9.05
2022-11-22T10:07:25.391Z,10.25
2022-11-22T10:09:59.616Z,10.73
2022-11-22T10:12:32.490Z,10.50
2022-11-22T10:15:05.555Z,11.20
2022-11-22T10:17:51.265Z,11.32
2022-11-22T10:20:19.871Z,10.02
2022-11-22T10:22:47.692Z,9.95
2022-11-22T10:25:21.037Z,10.95
2022-11-22T10:28:00.990Z,11.13
2022-11-22T10:30:32.865Z,10.52
2022-11-22T10:33:02.714Z,10.30
2022-11-22T10:35:29.847Z,9.52
2022-11-22T10:38:27.245Z,10.88
2022-11-22T10:41:01.756Z,10.68
2022-11-22T10:43:29.241Z,10.70
2022-11-22T10:46:02.585Z,11.77
2022-11-22T10:48:32.710Z,10.82
2022-11-22T10:50:59.836Z,10.25
2022-11-22T10:53:39.283Z,10.25
2022-11-22T10:56:06.373Z,10.48
2022-11-22T10:58:53.805Z,8.93
2022-11-22T11:01:23.779Z,9.32
2022-11-22T11:03:53.252Z,9.75
2022-11-22T11:06:57.026Z,9.70
2022-11-22T11:12:29.747Z,9.18
2022-11-22T11:15:01.348Z,9.70
2022-11-22T11:17:34.927Z,9.98
2022-11-22T11:20:03.872Z,8.63
2022-11-22T11:23:12.551Z,9.30
2022-11-22T11:27:49.687Z,10.05
2022-11-22T11:30:17.066Z,9.73
2022-11-22T11:32:54.526Z,8.82
2022-11-22T11:35:22.790Z,9.90
2022-11-22T11:37:49.965Z,11.77
2022-11-22T11:40:30.683Z,11.98
2022-11-22T11:43:16.503Z,12.02
2022-11-22T11:45:44.550Z,11.90
2022-11-22T11:48:28.258Z,12.75
2022-11-22T11:51:07.325Z,12.82
2022-11-22T11:53:34.769Z,10.50
2022-11-22T11:56:21.771Z,11.68
2022-11-22T11:58:53.263Z,11.38
2022-11-22T12:01:20.840Z,11.55
2022-11-22T12:03:56.476Z,12.20
2022-11-22T12:06:28.066Z,9.95
2022-11-22T12:08:55.251Z,10.23
2022-11-22T12:11:27.407Z,9.93
2022-11-22T12:14:19.104Z,10.15
2022-11-22T12:16:47.341Z,11.25
2022-11-22T12:19:21.658Z,9.95
2022-11-22T12:22:02.344Z,10.20
2022-11-22T12:24:52.346Z,11.90
2022-11-22T12:27:22.511Z,10.98
2022-11-22T12:29:49.753Z,10.90
2022-11-22T12:32:27.303Z,10.07
2022-11-22T12:35:12.849Z,10.25
2022-11-22T12:37:49.032Z,9.75
2022-11-22T12:40:27.008Z,10.88
2022-11-22T12:42:59.064Z,10.52
2022-11-22T12:45:34.425Z,10.48
2022-11-22T12:48:05.341Z,9.48
2022-11-22T12:50:53.182Z,10.57
2022-11-22T12:53:23.805Z,10.95
2022-11-22T12:56:05.904Z,11.13
2022-11-22T12:58:38.886Z,10.02
2022-11-22T13:01:10.291Z,10.65
2022-11-22T13:06:05.926Z,9.65
2022-11-22T13:08:43.107Z,10.68
2022-11-22T13:11:14.573Z,11.63
2022-11-22T13:13:47.221Z,12.82
2022-11-22T13:16:14.792Z,11.43
2022-11-22T13:18:44.865Z,11.35
2022-11-22T13:21:18.103Z,12.18
2022-11-22T13:24:03.758Z,14.88
2022-11-22T13:26:42.839Z,12.35
2022-11-22T13:29:12.221Z,12.38
2022-11-22T13:31:41.100Z,10.98
2022-11-22T13:34:21.524Z,12.00
2022-11-22T13:36:49.015Z,12.02
2022-11-22T13:39:21.126Z,10.90
2022-11-22T13:41:54.004Z,10.27
2022-11-22T13:44:24.248Z,10.88
2022-11-22T13:47:00.608Z,12.00
2022-11-22T13:49:36.482Z,10.80
2022-11-22T13:52:06.442Z,11.40
2022-11-22T13:54:33.915Z,10.65
2022-11-22T13:57:02.497Z,10.07
2022-11-22T13:59:29.867Z,10.52
2022-11-22T14:02:01.623Z,9.27
2022-11-22T14:04:43.226Z,8.23
2022-11-22T14:07:10.462Z,9.10
2022-11-22T14:09:37.648Z,9.82
2022-11-22T14:12:16.933Z,9.18
2022-11-22T14:15:04.311Z,5.32
2022-11-22T14:17:56.469Z,9.10
2022-11-22T14:20:32.376Z,9.60
2022-11-22T14:23:17.847Z,9.30
2022-11-22T14:25:59.203Z,10.18
2022-11-22T14:28:45.201Z,10.48
2022-11-22T14:31:21.232Z,9.55
2022-11-22T14:34:07.190Z,10.30
2022-11-22T14:36:34.297Z,10.35
2022-11-22T14:39:01.401Z,10.48
2022-11-22T14:41:28.567Z,12.43
2022-11-22T14:44:08.649Z,11.65
2022-11-22T14:46:56.782Z,12.05
2022-11-22T14:49:43.838Z,11.38
2022-11-22T14:52:31.299Z,12.18
2022-11-22T14:55:02.873Z,11.32
2022-11-22T14:57:31.721Z,9.20
2022-11-22T15:00:05.585Z,10.70
2022-11-22T15:02:35.531Z,10.30
2022-11-22T15:09:13.284Z,10.55
2022-11-22T15:09:19.921Z,9.38
2022-11-22T15:11:09.349Z,11.27
2022-11-22T15:13:45.505Z,11.35
2022-11-22T15:59:40.268Z,12.57
2022-11-22T16:02:18.311Z,12.55
2022-11-22T16:06:08.379Z,11.90
2022-11-22T16:07:54.320Z,10.63
2022-11-22T16:10:33.232Z,12.02
2022-11-22T16:13:12.344Z,13.23
2022-11-22T16:15:39.784Z,12.20
2022-11-22T16:18:39.508Z,12.95
2022-11-22T16:21:16.914Z,11.98
2022-11-22T16:23:47.935Z,13.65
2022-11-22T16:26:21.994Z,12.35
2022-11-22T16:28:51.509Z,12.20
2022-11-22T16:31:22.064Z,11.18
2022-11-22T16:33:49.578Z,13.20
2022-11-22T16:36:17.302Z,11.60
2022-11-22T16:38:45.141Z,12.98
2022-11-22T16:41:32.522Z,11.23
2022-11-22T16:44:11.156Z,13.05
2022-11-22T16:46:38.272Z,14.18
2022-11-22T16:49:13.443Z,13.23
2022-11-22T16:51:44.641Z,13.45
2022-11-22T16:54:14.097Z,13.48
2022-11-22T16:56:41.221Z,14.93
2022-11-22T16:59:12.588Z,15.75
2022-11-22T17:01:42.077Z,14.40
2022-11-22T17:04:17.262Z,11.90
2022-11-22T17:06:44.817Z,15.02
2022-11-22T17:09:12.436Z,14.25
2022-11-22T17:11:42.348Z,14.18
2022-11-22T17:14:14.004Z,14.30
2022-11-22T17:16:41.336Z,14.23
2022-11-22T17:19:14.557Z,15.15
2022-11-22T17:21:55.812Z,14.23
2022-11-22T17:24:23.875Z,16.35
2022-11-22T17:26:51.085Z,14.70
2022-11-22T17:29:48.873Z,14.35
2022-11-22T17:32:05.535Z,14.77
2022-11-22T17:34:32.996Z,12.77
2022-11-22T17:37:00.414Z,17.90
2022-11-22T17:39:27.573Z,16.63
2022-11-22T17:41:54.754Z,15.18
2022-11-22T17:44:22.628Z,16.10
2022-11-22T17:46:49.762Z,16.02
2022-11-22T17:49:16.961Z,15.70
2022-11-22T17:51:44.173Z,15.27
2022-11-22T17:54:11.372Z,14.43
2022-11-22T17:56:38.800Z,15.48
2022-11-22T17:59:05.998Z,15.25
2022-11-22T18:01:33.186Z,14.00
2022-11-22T18:04:00.351Z,15.55
2022-11-22T18:06:29.091Z,15.68
2022-11-22T18:08:56.257Z,14.68
2022-11-22T18:11:23.427Z,14.98
2022-11-22T18:13:50.530Z,14.60
2022-11-22T18:16:18.420Z,14.10
2022-11-22T18:18:56.675Z,14.75
2022-11-22T18:21:24.635Z,15.25
2022-11-22T18:23:51.883Z,14.93
2022-11-22T18:31:54.169Z,15.40
2022-11-22T18:34:22.220Z,13.70
2022-11-22T18:37:01.374Z,14.60
2022-11-22T18:39:30.866Z,15.70
2022-11-22T18:41:58.496Z,15.05
2022-11-22T18:44:25.714Z,14.73
2022-11-22T18:46:52.991Z,16.95
2022-11-22T18:49:20.146Z,14.63
2022-11-22T18:51:47.256Z,15.27
2022-11-22T18:54:14.529Z,14.73
2022-11-22T18:56:41.644Z,14.07
2022-11-22T18:59:12.293Z,16.80
2022-11-22T19:01:39.753Z,11.88
2022-11-22T19:04:07.125Z,15.15
2022-11-22T19:06:34.238Z,16.05
2022-11-22T19:09:01.930Z,15.32
2022-11-22T19:11:32.160Z,13.70
2022-11-22T19:13:59.800Z,13.35
2022-11-22T19:16:30.418Z,14.77
2022-11-22T19:18:59.678Z,14.95
2022-11-22T19:21:27.986Z,14.60
2022-11-22T19:23:55.816Z,15.30
2022-11-22T19:26:24.530Z,15.15
2022-11-22T19:28:55.529Z,15.43
2022-11-22T19:33:50.242Z,15.05
2022-11-22T19:36:18.788Z,16.30
2022-11-22T19:38:46.557Z,15.48
2022-11-22T19:41:15.164Z,14.88
2022-11-22T19:43:42.357Z,15.38
2022-11-22T19:46:09.472Z,14.43
2022-11-22T19:48:36.677Z,15.63
2022-11-22T19:51:10.752Z,14.40
2022-11-22T19:53:38.561Z,13.15
2022-11-22T19:56:06.840Z,12.25
2022-11-22T19:58:34.360Z,14.73
2022-11-22T20:01:08.375Z,14.77
2022-11-22T20:03:36.124Z,15.95
2022-11-22T20:06:04.125Z,14.45
2022-11-22T20:08:31.353Z,14.88
2022-11-22T20:11:08.815Z,15.10
2022-11-22T20:13:37.069Z,16.02
2022-11-22T20:16:10.943Z,14.55
2022-11-22T20:18:38.443Z,14.65
2022-11-22T20:21:06.567Z,14.60
2022-11-22T20:23:33.892Z,15.27
2022-11-22T20:26:11.351Z,14.35
2022-11-22T20:28:39.386Z,15.70
2022-11-22T20:31:09.624Z,16.42
2022-11-22T20:33:37.414Z,14.52
2022-11-22T20:36:09.351Z,14.75
2022-11-22T20:38:37.513Z,16.00
2022-11-22T20:41:06.245Z,16.27
2022-11-22T20:43:34.082Z,13.50
2022-11-22T20:46:02.104Z,15.18
2022-11-22T20:48:30.360Z,14.65
2022-11-22T20:50:57.607Z,15.55
2022-11-22T20:53:24.771Z,15.85
2022-11-22T20:55:52.002Z,17.35
2022-11-22T20:58:19.177Z,19.33
2022-11-22T21:00:46.355Z,17.10
2022-11-22T21:03:13.516Z,14.85
2022-11-22T21:05:40.697Z,15.63
2022-11-22T21:08:07.809Z,13.25
2022-11-22T21:10:35.021Z,16.45
2022-11-22T21:13:02.220Z,15.05
2022-11-22T21:15:29.359Z,14.20
2022-11-22T21:18:23.725Z,14.63
2022-11-22T21:20:45.410Z,13.73
2022-11-22T21:23:12.514Z,16.83
2022-11-22T21:25:39.758Z,17.42
2022-11-22T21:28:07.390Z,15.52
2022-11-22T21:30:34.537Z,17.13
2022-11-22T21:33:02.389Z,16.17
2022-11-22T21:35:29.555Z,15.45
2022-11-22T21:37:56.670Z,17.05
2022-11-22T21:40:23.788Z,14.77
2022-11-22T21:42:51.028Z,16.27
2022-11-22T21:45:18.140Z,14.63
2022-11-22T21:47:47.372Z,13.48
2022-11-22T21:50:15.393Z,13.32
2022-11-22T21:52:42.634Z,13.80
2022-11-22T21:55:11.465Z,14.55
2022-11-22T21:57:38.649Z,13.23
2022-11-22T22:00:06.038Z,13.93
2022-11-22T22:02:33.199Z,13.15
2022-11-22T22:05:00.392Z,14.98
2022-11-22T22:07:51.562Z,13.23
2022-11-22T22:10:15.427Z,13.77
2022-11-22T22:12:42.556Z,14.13
2022-11-22T22:15:11.115Z,13.52
2022-11-22T22:17:38.449Z,13.65
2022-11-22T22:20:05.936Z,13.35
2022-11-22T22:22:35.767Z,14.13
2022-11-22T22:25:03.101Z,11.65
2022-11-22T22:27:34.839Z,12.10
2022-11-22T22:30:01.974Z,11.90
2022-11-22T22:32:29.216Z,12.90
2022-11-22T22:34:58.227Z,10.85
2022-11-22T22:37:25.421Z,12.15
2022-11-22T22:39:52.650Z,10.18
2022-11-22T22:42:20.010Z,12.38
2022-11-22T22:44:47.532Z,12.73
2022-11-22T22:47:14.885Z,11.23
2022-11-22T22:49:42.100Z,11.45
2022-11-22T22:52:09.230Z,9.73
2022-11-22T22:54:36.445Z,11.30
2022-11-22T22:57:03.806Z,11.95
2022-11-22T22:59:31.300Z,10.48
2022-11-22T23:01:58.616Z,11.90
2022-11-22T23:04:25.996Z,11.73
2022-11-22T23:06:53.189Z,10.80
2022-11-22T23:09:20.371Z,9.73
2022-11-22T23:12:05.975Z,8.30
2022-11-22T23:14:33.240Z,8.05
2022-11-22T23:17:00.408Z,9.25
2022-11-22T23:19:27.912Z,8.98
2022-11-22T23:21:55.647Z,7.93
2022-11-22T23:24:22.792Z,10.77
2022-11-22T23:26:49.948Z,10.93
2022-11-22T23:29:17.231Z,11.93
2022-11-22T23:31:44.322Z,10.35
2022-11-22T23:34:12.214Z,10.57
2022-11-22T23:36:41.161Z,11.68
2022-11-22T23:39:08.703Z,10.40
2022-11-22T23:41:35.870Z,10.00
2022-11-22T23:44:03.150Z,8.85
2022-11-22T23:46:30.358Z,9.80
2022-11-22T23:48:58.919Z,9.57
2022-11-22T23:51:26.653Z,9.95
2022-11-22T23:54:03.176Z,10.23
2022-11-22T23:56:31.378Z,9.05
2022-11-22T23:58:59.328Z,9.35
